Time;durP1;ratioP1;P1;durP2;ratioP2;P2;SDS_P1;SDS_P2;PMS_P1;PMS_P2;Temp;Humidity;BMP_temperature;BMP_pressure;BME280_temperature;BME280_humidity;BME280_pressure;Samples;Min_cycle;Max_cycle;Signal;HPM_P1;HPM_P2
2023/03/24 00:00:23;;;;;;;21.30;15.30;;;;;;;10.78;54.75;98923.37;107325;1257;74736;-39
2023/03/24 00:02:53;;;;;;;22.30;14.90;;;;;;;10.79;54.71;98924.77;107325;1257;70098;-40
2023/03/24 00:05:22;;;;;;;22.30;15.50;;;;;;;10.78;54.86;98930.12;107300;1257;73841;-40
2023/03/24 00:07:51;;;;;;;23.80;15.70;;;;;;;10.78;54.95;98927.63;107314;1260;61232;-39
2023/03/24 00:10:24;;;;;;;22.60;15.10;;;;;;;10.77;55.01;98925.46;107329;1258;61530;-38
2023/03/24 00:12:53;;;;;;;23.70;15.60;;;;;;;10.75;55.10;98922.55;107316;1257;73614;-39
2023/03/24 00:15:25;;;;;;;20.90;15.10;;;;;;;10.73;54.96;98922.61;107331;1258;70176;-38
2023/03/24 00:17:56;;;;;;;23.20;15.80;;;;;;;10.71;54.93;98922.66;107244;1260;73633;-38
2023/03/24 00:20:25;;;;;;;21.70;15.70;;;;;;;10.70;54.97;98929.23;107303;1258;60513;-38
2023/03/24 00:22:57;;;;;;;22.50;15.10;;;;;;;10.68;55.04;98928.69;107313;1258;60650;-38
2023/03/24 00:25:28;;;;;;;28.20;16.20;;;;;;;10.61;55.05;98920.38;107332;1258;75027;-39
2023/03/24 00:27:56;;;;;;;;;;;;;;;10.63;55.11;98923.89;107303;1258;69624;-38
2023/03/24 00:30:25;;;;;;;27.50;16.10;;;;;;;10.55;55.16;98922.17;107204;1260;73657;-39
2023/03/24 00:32:57;;;;;;;25.60;16.20;;;;;;;10.49;55.32;98920.71;107289;1260;61260;-38
2023/03/24 00:35:31;;;;;;;21.10;15.60;;;;;;;10.51;55.29;98918.16;107293;1256;61485;-38
2023/03/24 00:37:59;;;;;;;24.40;16.30;;;;;;;10.48;55.34;98917.14;107315;1258;74790;-38
2023/03/24 00:40:28;;;;;;;20.80;15.00;;;;;;;10.48;55.44;98915.42;107286;1260;69971;-38
2023/03/24 00:42:58;;;;;;;25.30;15.60;;;;;;;10.46;55.32;98911.77;107272;1257;73840;-39
2023/03/24 00:45:28;;;;;;;23.90;16.00;;;;;;;10.44;55.19;98910.13;107365;1260;61341;-38
2023/03/24 00:47:56;;;;;;;;;;;;;;;10.42;55.25;98909.79;107191;1257;61595;-38
2023/03/24 00:50:25;;;;;;;24.70;15.30;;;;;;;10.36;55.22;98906.70;107057;1263;74470;-38
2023/03/24 00:52:56;;;;;;;21.60;15.20;;;;;;;10.33;55.34;98898.84;107278;1262;68862;-40
2023/03/24 00:55:27;;;;;;;22.40;14.80;;;;;;;10.35;55.19;98898.02;107235;1258;74109;-38
2023/03/24 00:57:59;;;;;;;23.50;15.40;;;;;;;10.35;55.29;98897.25;107225;1262;60546;-38
2023/03/24 01:00:29;;;;;;;22.70;14.20;;;;;;;10.36;55.35;98900.27;107174;1263;60338;-38
2023/03/24 01:03:02;;;;;;;21.10;14.60;;;;;;;10.38;55.27;98898.13;107095;1257;75087;-39
2023/03/24 01:05:31;;;;;;;22.50;15.20;;;;;;;10.38;55.32;98893.56;107104;1258;68344;-38
2023/03/24 01:08:03;;;;;;;19.60;14.90;;;;;;;10.38;55.33;98889.69;106982;1262;73485;-38
2023/03/24 01:10:49;;;;;;;22.50;14.70;;;;;;;10.36;55.38;98887.58;106951;1263;60860;-39
2023/03/24 01:13:27;;;;;;;22.80;14.20;;;;;;;10.34;55.57;98888.40;107103;1262;61509;-38
2023/03/24 01:15:56;;;;;;;19.30;14.10;;;;;;;10.32;55.60;98889.99;107030;1260;74672;-40
2023/03/24 01:18:26;;;;;;;20.90;13.70;;;;;;;10.31;55.68;98895.86;107095;1257;69017;-39
2023/03/24 01:20:57;;;;;;;20.80;14.50;;;;;;;10.29;55.80;98897.62;107123;1258;73596;-39
2023/03/24 01:23:26;;;;;;;19.40;14.50;;;;;;;10.26;55.98;98897.13;107125;1258;61634;-40
2023/03/24 01:25:55;;;;;;;20.20;13.00;;;;;;;10.23;56.08;98894.45;107232;1257;61321;-40
2023/03/24 01:28:23;;;;;;;22.40;13.30;;;;;;;10.20;56.18;98891.70;107189;1257;74889;-40
2023/03/24 01:30:53;;;;;;;19.30;13.60;;;;;;;10.19;56.21;98898.51;107236;1262;69594;-40
2023/03/24 01:33:21;;;;;;;21.00;14.40;;;;;;;10.16;56.28;98899.95;107137;1258;73897;-40
2023/03/24 01:35:50;;;;;;;17.30;13.60;;;;;;;10.14;56.58;98904.05;107118;1257;61251;-40
2023/03/24 01:38:20;;;;;;;20.60;13.80;;;;;;;10.11;56.63;98905.27;107221;1257;61188;-38
2023/03/24 01:40:49;;;;;;;24.80;15.00;;;;;;;10.08;56.79;98912.33;107305;1258;75070;-39
2023/03/24 01:43:23;;;;;;;20.30;13.80;;;;;;;10.05;56.84;98912.77;107060;1262;69881;-38
2023/03/24 01:46:07;;;;;;;19.70;14.00;;;;;;;10.04;56.89;98909.42;107223;1262;73858;-38
2023/03/24 01:49:03;;;;;;;21.80;14.30;;;;;;;10.03;57.01;98917.38;107102;1263;62071;-38
2023/03/24 01:51:39;;;;;;;19.60;14.00;;;;;;;10.00;57.11;98915.88;107233;1257;61652;-38
2023/03/24 01:54:36;;;;;;;22.10;14.40;;;;;;;9.96;57.16;98912.72;107252;1258;73486;-39
2023/03/24 01:57:17;;;;;;;18.70;13.40;;;;;;;9.95;57.16;98913.63;107550;1254;68506;-39
2023/03/24 01:59:48;;;;;;;23.50;14.60;;;;;;;9.92;57.13;98906.16;107453;1253;73559;-39
2023/03/24 02:02:44;;;;;;;23.30;14.60;;;;;;;9.93;56.89;98909.80;107567;1254;61210;-39
2023/03/24 02:05:15;;;;;;;21.90;13.90;;;;;;;9.93;56.79;98907.27;107621;1255;61299;-39
2023/03/24 02:08:15;;;;;;;23.20;14.30;;;;;;;9.95;56.86;98907.13;107357;1254;74728;-39
2023/03/24 02:10:45;;;;;;;21.20;13.70;;;;;;;9.95;56.79;98904.11;107671;1254;67232;-39
2023/03/24 02:13:15;;;;;;;20.80;14.10;;;;;;;9.94;56.78;98903.33;107359;1260;73908;-39
2023/03/24 02:15:57;;;;;;;24.50;14.50;;;;;;;9.96;56.69;98899.33;107476;1254;61586;-39
2023/03/24 02:18:51;;;;;;;21.00;12.60;;;;;;;9.99;56.82;98905.25;107624;1257;61209;-39
2023/03/24 02:21:33;;;;;;;20.00;13.80;;;;;;;10.00;56.93;98908.45;107519;1254;74727;-39
2023/03/24 02:24:39;;;;;;;28.50;14.80;;;;;;;10.00;56.79;98901.95;107347;1254;69591;-39
2023/03/24 02:27:31;;;;;;;20.90;14.30;;;;;;;10.03;56.70;98904.70;107593;1254;73789;-39
2023/03/24 02:30:48;;;;;;;21.70;14.70;;;;;;;10.04;56.65;98905.33;107413;1254;60620;-39
2023/03/24 02:33:48;;;;;;;22.30;14.60;;;;;;;10.06;56.78;98911.30;107084;1253;60692;-39
2023/03/24 02:36:31;;;;;;;23.10;14.70;;;;;;;10.05;56.95;98912.76;107434;1258;74861;-39
2023/03/24 02:39:31;;;;;;;22.10;14.50;;;;;;;10.03;57.12;98910.17;107469;1254;69664;-39
2023/03/24 02:42:18;;;;;;;;;;;;;;;10.02;57.05;98907.08;107647;1254;72602;-39
2023/03/24 02:44:55;;;;;;;22.40;14.40;;;;;;;9.93;57.43;98912.59;107645;1253;61644;-39
2023/03/24 02:48:08;;;;;;;19.40;13.70;;;;;;;9.90;57.59;98912.40;107622;1257;60490;-39
2023/03/24 02:50:48;;;;;;;26.40;14.80;;;;;;;9.90;57.53;98907.77;107302;1255;73884;-39
2023/03/24 02:53:24;;;;;;;23.30;15.00;;;;;;;9.88;57.63;98909.65;107459;1254;69621;-39
2023/03/24 02:56:40;;;;;;;23.40;13.90;;;;;;;9.87;57.62;98909.89;107451;1258;73537;-39
2023/03/24 02:59:42;;;;;;;25.40;15.30;;;;;;;9.84;57.71;98911.23;107375;1257;61287;-39
2023/03/24 03:02:50;;;;;;;21.50;14.10;;;;;;;9.81;57.97;98915.91;107222;1257;60434;-40
2023/03/24 03:05:38;;;;;;;24.00;15.10;;;;;;;9.78;58.12;98916.31;107367;1254;210617;-39
2023/03/24 03:09:15;;;;;;;20.50;14.70;;;;;;;9.81;58.22;98922.63;104163;1293;600740;-40
2023/03/24 03:11:46;;;;;;;23.40;15.00;;;;;;;9.75;58.29;98912.27;106656;1266;61313;-39
2023/03/24 03:14:22;;;;;;;22.40;15.00;;;;;;;9.80;58.40;98920.98;107213;1257;61491;-39
2023/03/24 03:17:14;;;;;;;22.40;14.80;;;;;;;9.82;58.60;98924.50;107389;1255;73222;-39
2023/03/24 03:19:46;;;;;;;22.70;15.20;;;;;;;9.84;58.63;98923.05;107304;1256;68793;-39
2023/03/24 03:22:17;;;;;;;23.70;14.30;;;;;;;9.85;58.58;98925.70;107349;1253;195926;-39
2023/03/24 03:24:49;;;;;;;22.40;14.00;;;;;;;9.85;58.49;98929.44;107672;1252;59244;-40
2023/03/24 03:27:26;;;;;;;23.50;14.10;;;;;;;9.88;58.42;98931.17;107603;1254;61107;-38
2023/03/24 03:29:59;;;;;;;21.10;13.50;;;;;;;9.91;58.54;98937.55;107647;1253;73151;-38
2023/03/24 03:32:30;;;;;;;22.70;13.80;;;;;;;9.92;58.62;98939.65;107562;1254;69970;-38
2023/03/24 03:35:26;;;;;;;23.50;15.00;;;;;;;9.94;58.66;98945.11;107621;1252;73541;-39
2023/03/24 03:38:06;;;;;;;19.40;13.80;;;;;;;9.97;58.69;98942.98;107609;1254;60316;-38
2023/03/24 03:40:37;;;;;;;21.20;13.60;;;;;;;9.98;58.67;98942.08;107615;1256;59484;-38
2023/03/24 03:43:13;;;;;;;22.00;14.40;;;;;;;9.99;58.70;98947.12;107537;1253;74015;-38
2023/03/24 03:45:45;;;;;;;18.20;13.40;;;;;;;10.00;58.73;98949.83;107339;1253;70063;-38
2023/03/24 03:48:16;;;;;;;20.10;13.60;;;;;;;10.03;58.89;98947.41;107509;1254;73872;-39
2023/03/24 03:50:45;;;;;;;20.10;13.60;;;;;;;10.05;59.02;98942.86;107507;1257;62418;-38
2023/03/24 03:53:15;;;;;;;25.40;14.50;;;;;;;10.07;58.94;98946.52;107646;1254;60836;-38
2023/03/24 03:55:44;;;;;;;21.90;13.40;;;;;;;10.06;58.83;98949.76;107621;1254;74157;-39
2023/03/24 03:58:15;;;;;;;21.00;13.50;;;;;;;10.06;59.03;98949.52;107576;1254;69957;-38
2023/03/24 04:00:54;;;;;;;18.50;13.20;;;;;;;10.06;59.22;98950.15;107560;1254;73746;-39
2023/03/24 04:03:48;;;;;;;19.70;13.20;;;;;;;10.03;59.14;98944.08;107492;1252;60083;-39
2023/03/24 04:07:06;;;;;;;21.20;13.60;;;;;;;10.00;59.27;98947.51;107590;1254;60933;-40
2023/03/24 04:09:47;;;;;;;20.80;13.40;;;;;;;10.00;59.30;98946.75;107731;1252;72709;-39
2023/03/24 04:12:52;;;;;;;21.50;13.40;;;;;;;10.00;59.34;98950.61;107612;1254;70034;-39
2023/03/24 04:15:58;;;;;;;21.40;13.70;;;;;;;10.04;59.53;98955.45;106708;1260;73272;-40
2023/03/24 04:19:00;;;;;;;22.20;12.70;;;;;;;10.02;59.63;98962.71;107604;1253;60820;-39
2023/03/24 04:22:04;;;;;;;20.90;13.10;;;;;;;10.03;59.70;98961.80;107635;1254;61485;-40
2023/03/24 04:24:48;;;;;;;20.20;13.30;;;;;;;10.03;59.63;98964.66;107112;1253;73247;-39
2023/03/24 04:27:45;;;;;;;23.80;13.50;;;;;;;10.01;59.78;98962.45;107591;1254;69630;-39
2023/03/24 04:30:29;;;;;;;17.80;12.40;;;;;;;10.02;59.74;98968.59;107453;1254;71843;-39
2023/03/24 04:33:27;;;;;;;19.80;12.80;;;;;;;10.01;59.71;98966.18;107639;1254;61438;-40
2023/03/24 04:36:05;;;;;;;19.60;13.00;;;;;;;10.06;59.83;98966.01;107596;1253;61364;-39
2023/03/24 04:38:47;;;;;;;21.00;12.80;;;;;;;10.05;59.78;98972.11;107628;1254;72408;-39
2023/03/24 04:41:28;;;;;;;25.60;12.70;;;;;;;10.05;59.89;98977.92;107585;1253;69766;-39
2023/03/24 04:44:11;;;;;;;17.60;13.10;;;;;;;10.06;60.04;98977.85;107585;1254;73421;-40
2023/03/24 04:46:52;;;;;;;;;;;;;;;10.07;60.11;98976.79;107570;1253;61389;-39
2023/03/24 04:49:24;;;;;;;21.20;12.40;;;;;;;10.06;60.33;98978.93;107568;1253;60178;-39
2023/03/24 04:51:53;;;;;;;17.50;11.20;;;;;;;10.08;60.58;98972.45;107522;1258;74632;-39
2023/03/24 04:54:28;;;;;;;17.80;11.60;;;;;;;10.23;60.09;98972.93;107430;1254;69894;-40
2023/03/24 04:57:02;;;;;;;20.20;12.70;;;;;;;10.38;59.62;98976.94;107469;1253;73901;-40
2023/03/24 04:59:41;;;;;;;22.50;12.50;;;;;;;10.48;59.55;98980.09;107493;1253;61592;-39
2023/03/24 05:02:10;;;;;;;20.20;12.80;;;;;;;10.56;59.70;98982.12;107498;1253;61204;-40
2023/03/24 05:04:50;;;;;;;18.90;13.40;;;;;;;10.63;59.73;98984.61;107367;1253;72870;-40
2023/03/24 05:07:24;;;;;;;20.90;13.50;;;;;;;10.68;59.73;98975.99;107363;1253;69625;-39
2023/03/24 05:09:56;;;;;;;21.20;13.40;;;;;;;10.70;59.55;98974.80;107380;1253;73618;-39
2023/03/24 05:12:26;;;;;;;19.90;13.70;;;;;;;10.71;59.48;98975.72;107378;1254;61601;-39
2023/03/24 05:15:14;;;;;;;18.90;13.30;;;;;;;10.71;59.43;98980.84;107401;1257;61440;-39
2023/03/24 05:17:43;;;;;;;19.10;13.10;;;;;;;10.71;59.60;98982.09;107505;1254;72340;-40
2023/03/24 05:20:15;;;;;;;20.20;13.10;;;;;;;10.74;59.56;98980.88;107544;1258;68505;-39
2023/03/24 05:22:48;;;;;;;20.30;14.00;;;;;;;10.76;59.47;98987.71;107442;1254;73837;-38
2023/03/24 05:25:18;;;;;;;22.20;15.00;;;;;;;10.74;59.42;98984.59;107511;1253;60264;-39
2023/03/24 05:27:48;;;;;;;20.60;13.80;;;;;;;10.75;59.68;98987.55;107495;1253;61550;-38
2023/03/24 05:30:20;;;;;;;22.50;15.10;;;;;;;10.76;59.82;98990.13;107470;1258;74320;-38
2023/03/24 05:32:52;;;;;;;22.90;15.30;;;;;;;10.77;59.95;98991.39;107482;1253;69566;-38
2023/03/24 05:35:21;;;;;;;24.20;16.00;;;;;;;10.80;60.07;98989.25;107540;1253;72345;-38
2023/03/24 05:37:50;;;;;;;23.10;15.00;;;;;;;10.83;60.00;98987.19;107435;1257;59580;-39
2023/03/24 05:40:19;;;;;;;20.40;14.10;;;;;;;10.87;60.24;98992.11;107448;1257;61603;-39
2023/03/24 05:42:51;;;;;;;21.20;13.50;;;;;;;10.93;60.32;98996.36;106741;1254;1003054;-39
2023/03/24 05:45:29;;;;;;;20.00;13.50;;;;;;;11.01;60.26;98995.98;107475;1259;69661;-39
2023/03/24 05:47:58;;;;;;;;;;;;;;;11.14;59.93;98995.59;107448;1253;72815;-39
2023/03/24 05:50:37;;;;;;;18.60;12.60;;;;;;;11.25;59.84;98993.84;107423;1253;60917;-38
2023/03/24 05:53:07;;;;;;;25.10;13.40;;;;;;;11.32;59.87;99000.89;107549;1253;61392;-38
2023/03/24 05:55:57;;;;;;;18.20;12.50;;;;;;;11.42;59.83;98998.35;107491;1253;74052;-39
2023/03/24 05:58:50;;;;;;;22.50;13.20;;;;;;;11.49;59.88;99001.67;107305;1253;69972;-38
2023/03/24 06:01:19;;;;;;;;;;;;;;;11.53;59.86;99003.20;107517;1254;74578;-39
2023/03/24 06:03:50;;;;;;;19.30;13.20;;;;;;;11.53;59.83;98995.73;107399;1254;61478;-39
2023/03/24 06:06:18;;;;;;;19.20;13.20;;;;;;;11.54;59.71;99001.56;107514;1253;61187;-39
2023/03/24 06:08:53;;;;;;;19.30;12.90;;;;;;;11.61;59.77;99005.58;107483;1253;74684;-40
2023/03/24 06:11:23;;;;;;;21.60;13.10;;;;;;;11.66;59.77;99003.47;107481;1253;69865;-39
2023/03/24 06:13:59;;;;;;;19.70;13.50;;;;;;;11.66;59.88;98997.95;107448;1253;73554;-39
2023/03/24 06:16:37;;;;;;;23.30;14.20;;;;;;;11.73;60.00;99009.91;107488;1253;61387;-40
2023/03/24 06:19:10;;;;;;;21.10;13.70;;;;;;;11.75;59.94;99012.79;107385;1254;61531;-40
2023/03/24 06:21:49;;;;;;;16.90;12.70;;;;;;;11.77;60.15;99017.78;107488;1254;73123;-39
2023/03/24 06:24:28;;;;;;;19.40;13.20;;;;;;;11.80;60.06;99016.10;107450;1253;69841;-39
2023/03/24 06:27:01;;;;;;;17.60;12.90;;;;;;;11.80;60.15;99011.67;107341;1253;73909;-39
2023/03/24 06:29:32;;;;;;;20.00;12.80;;;;;;;11.82;60.10;99019.84;107275;1257;61707;-39
2023/03/24 06:32:00;;;;;;;19.10;13.10;;;;;;;11.83;60.03;99021.65;107337;1253;59950;-39
2023/03/24 06:34:31;;;;;;;20.00;14.00;;;;;;;11.85;60.00;99020.10;107443;1254;74027;-39
2023/03/24 06:37:16;;;;;;;21.10;13.60;;;;;;;11.86;60.14;99018.70;107409;1254;69492;-38
2023/03/24 06:39:45;;;;;;;;;;;;;;;11.87;60.10;99019.42;107344;1254;75006;-38
2023/03/24 06:42:16;;;;;;;19.90;13.40;;;;;;;11.90;60.06;99012.92;107333;1254;62888;-38
2023/03/24 06:44:53;;;;;;;22.30;13.50;;;;;;;11.97;60.05;99018.17;107477;1254;61314;-40
2023/03/24 06:47:21;;;;;;;19.10;13.30;;;;;;;12.02;59.86;99016.83;107434;1254;74012;-38
2023/03/24 06:49:50;;;;;;;21.30;13.80;;;;;;;12.05;59.89;99012.64;107325;1253;69896;-38
2023/03/24 06:52:19;;;;;;;18.30;13.30;;;;;;;12.06;59.94;99013.51;107453;1254;73891;-39
2023/03/24 06:54:53;;;;;;;21.20;13.60;;;;;;;12.06;59.99;99016.46;107370;1254;61712;-39
2023/03/24 06:57:22;;;;;;;21.30;13.70;;;;;;;12.07;59.97;99018.56;107546;1254;61524;-39
2023/03/24 07:00:10;;;;;;;19.80;13.00;;;;;;;12.10;59.93;99013.31;107507;1254;74273;-39
2023/03/24 07:02:49;;;;;;;;;;;;;;;12.12;60.00;99010.91;107363;1253;69720;-39
2023/03/24 07:05:18;;;;;;;17.90;13.00;;;;;;;12.09;60.12;99013.23;107402;1253;73635;-39
2023/03/24 07:07:47;;;;;;;20.00;12.90;;;;;;;12.09;60.35;99018.95;107303;1256;61460;-40
2023/03/24 07:10:39;;;;;;;18.90;12.90;;;;;;;12.17;60.27;99019.95;107297;1257;61381;-38
2023/03/24 07:13:08;;;;;;;19.50;12.50;;;;;;;12.21;60.37;99020.67;107251;1261;73472;-39
2023/03/24 07:15:37;;;;;;;19.20;13.50;;;;;;;12.26;60.15;99021.41;107257;1256;69879;-38
2023/03/24 07:18:08;;;;;;;17.70;13.00;;;;;;;12.31;60.01;99020.20;107282;1256;73733;-38
2023/03/24 07:20:46;;;;;;;20.70;13.50;;;;;;;12.36;59.74;99021.17;107292;1260;61591;-39
2023/03/24 07:23:21;;;;;;;17.10;12.80;;;;;;;12.40;59.51;99021.90;107250;1256;61563;-38
2023/03/24 07:25:59;;;;;;;18.00;12.90;;;;;;;12.44;59.32;99023.93;107304;1260;73892;-39
2023/03/24 07:28:46;;;;;;;21.80;13.20;;;;;;;12.50;59.30;99020.63;107264;1256;67999;-39
2023/03/24 07:31:38;;;;;;;17.20;12.10;;;;;;;12.56;59.17;99020.19;107210;1256;73557;-38
2023/03/24 07:34:10;;;;;;;17.90;12.40;;;;;;;12.61;59.12;99020.45;107229;1256;60181;-39
2023/03/24 07:36:41;;;;;;;22.20;12.60;;;;;;;12.68;58.96;99022.27;107198;1256;61181;-39
2023/03/24 07:39:13;;;;;;;18.10;12.60;;;;;;;12.74;58.85;99020.13;107243;1256;73698;-39
2023/03/24 07:41:42;;;;;;;18.00;12.20;;;;;;;12.79;58.71;99016.73;107215;1256;69560;-39
2023/03/24 07:44:18;;;;;;;17.80;12.30;;;;;;;12.82;58.43;99017.36;107219;1256;73424;-39
2023/03/24 07:46:50;;;;;;;16.40;12.60;;;;;;;12.85;58.59;99015.77;107234;1256;61490;-39
2023/03/24 07:49:19;;;;;;;17.10;12.00;;;;;;;12.91;58.54;99013.59;107206;1256;61565;-39
2023/03/24 07:51:54;;;;;;;19.00;12.90;;;;;;;12.97;58.03;99016.88;107177;1256;74705;-39
2023/03/24 07:54:31;;;;;;;16.60;13.00;;;;;;;13.03;58.13;99010.53;107231;1256;69737;-39
2023/03/24 07:57:00;;;;;;;18.60;12.40;;;;;;;13.09;58.03;99008.36;107250;1256;73892;-39
2023/03/24 07:59:32;;;;;;;19.30;12.50;;;;;;;13.12;57.97;99003.50;107299;1256;61534;-39
2023/03/24 08:02:29;;;;;;;17.50;12.60;;;;;;;13.17;58.05;99009.34;107075;1256;61385;-39
2023/03/24 08:05:21;;;;;;;19.10;12.50;;;;;;;13.19;57.86;99003.45;107343;1256;75040;-39
2023/03/24 08:08:08;;;;;;;23.00;13.30;;;;;;;13.24;57.93;98999.19;107511;1254;70021;-39
2023/03/24 08:10:37;;;;;;;19.00;12.80;;;;;;;13.28;57.91;99003.86;107604;1254;73530;-39
2023/03/24 08:13:08;;;;;;;18.90;13.50;;;;;;;13.36;57.76;99006.91;107597;1254;60315;-39
2023/03/24 08:15:36;;;;;;;18.70;13.20;;;;;;;13.44;57.39;99007.46;107545;1259;60371;-39
2023/03/24 08:18:09;;;;;;;18.50;13.70;;;;;;;13.51;57.40;99008.89;107455;1255;73861;-39
2023/03/24 08:20:38;;;;;;;19.10;11.60;;;;;;;13.53;56.87;99003.60;107476;1254;69719;-39
2023/03/24 08:23:07;;;;;;;18.40;12.50;;;;;;;13.64;56.80;99008.19;107493;1253;73909;-39
2023/03/24 08:25:36;;;;;;;19.10;13.10;;;;;;;13.68;56.86;99012.86;107479;1254;61609;-37
2023/03/24 08:28:05;;;;;;;16.90;12.90;;;;;;;13.73;56.68;99013.65;107484;1254;61564;-37
2023/03/24 08:30:33;;;;;;;19.70;13.40;;;;;;;13.79;56.41;99011.23;107433;1254;73006;-37
2023/03/24 08:33:02;;;;;;;16.80;12.50;;;;;;;13.85;56.27;99007.90;107405;1254;69471;-37
2023/03/24 08:35:33;;;;;;;19.70;13.70;;;;;;;13.95;56.06;99001.50;107514;1254;73972;-37
2023/03/24 08:38:02;;;;;;;17.60;13.00;;;;;;;14.04;55.85;99002.89;107938;1254;61580;-37
2023/03/24 08:40:37;;;;;;;16.50;11.70;;;;;;;14.14;55.32;99001.80;107593;1254;61532;-37
2023/03/24 08:43:09;;;;;;;15.50;11.60;;;;;;;14.23;55.01;99003.90;107620;1259;73541;-37
2023/03/24 08:45:38;;;;;;;19.00;12.30;;;;;;;14.33;54.88;99000.91;107663;1254;68862;-37
2023/03/24 08:48:07;;;;;;;16.90;12.80;;;;;;;14.45;54.57;99001.85;107590;1254;73872;-37
2023/03/24 08:50:39;;;;;;;19.10;11.60;;;;;;;14.56;54.08;99000.11;107600;1254;61406;-37
2023/03/24 08:53:10;;;;;;;18.20;11.90;;;;;;;14.66;54.16;99000.85;107599;1254;60443;-37
2023/03/24 08:55:41;;;;;;;20.50;12.20;;;;;;;14.79;53.83;99004.08;107551;1259;74888;-38
2023/03/24 08:58:14;;;;;;;16.70;12.40;;;;;;;14.92;53.57;99003.95;107589;1254;69948;-38
2023/03/24 09:00:43;;;;;;;17.90;11.60;;;;;;;15.02;53.37;99001.95;107641;1254;73867;-38
2023/03/24 09:03:16;;;;;;;18.60;12.10;;;;;;;15.12;53.01;99007.13;107570;1254;61332;-38
2023/03/24 09:05:48;;;;;;;17.50;12.00;;;;;;;15.17;53.03;99007.11;107638;1254;60298;-38
2023/03/24 09:08:18;;;;;;;16.70;11.70;;;;;;;15.20;52.32;99004.20;107537;1254;75060;-38
2023/03/24 09:10:46;;;;;;;17.00;12.00;;;;;;;15.23;52.28;98998.25;107537;1254;69913;-38
2023/03/24 09:13:15;;;;;;;16.90;10.70;;;;;;;15.26;52.62;98993.72;107502;1253;72714;-38
2023/03/24 09:15:46;;;;;;;15.80;11.50;;;;;;;15.31;52.20;98992.11;107540;1254;61489;-38
2023/03/24 09:18:15;;;;;;;18.00;12.30;;;;;;;15.36;52.23;98981.48;107629;1254;60354;-38
2023/03/24 09:20:43;;;;;;;15.50;11.00;;;;;;;15.43;52.16;98984.09;107571;1258;74048;-38
2023/03/24 09:23:12;;;;;;;18.80;11.30;;;;;;;15.52;51.89;98981.62;107560;1254;70410;-38
2023/03/24 09:25:50;;;;;;;15.10;11.10;;;;;;;15.62;52.02;98977.19;107540;1257;73657;-38
2023/03/24 09:28:19;;;;;;;17.20;10.80;;;;;;;15.74;51.88;98977.88;107600;1254;60512;-38
2023/03/24 09:30:48;;;;;;;15.70;10.20;;;;;;;15.86;51.34;98976.21;107970;1254;61639;-38
2023/03/24 09:33:18;;;;;;;;;;;;;;;15.99;51.33;98975.23;107612;1254;73872;-39
2023/03/24 09:35:54;;;;;;;14.90;10.90;;;;;;;16.06;50.71;98975.25;107618;1254;69933;-39
2023/03/24 09:38:25;;;;;;;17.40;11.50;;;;;;;16.14;50.41;98979.86;107584;1254;73882;-39
2023/03/24 09:41:01;;;;;;;;;;;;;;;16.29;49.93;98975.96;107600;1257;61851;-39
2023/03/24 09:43:41;;;;;;;16.00;11.00;;;;;;;16.38;50.00;98974.92;107587;1254;61160;-38
2023/03/24 09:46:44;;;;;;;14.20;9.80;;;;;;;16.55;49.73;98970.29;107503;1254;75047;-39
2023/03/24 09:49:22;;;;;;;13.20;10.00;;;;;;;16.80;48.62;98969.94;107354;1254;69136;-38
2023/03/24 09:51:54;;;;;;;15.90;11.80;;;;;;;16.93;48.15;98967.57;107538;1254;74290;-39
2023/03/24 09:54:35;;;;;;;16.30;10.30;;;;;;;17.03;47.91;98963.14;107492;1253;61254;-39
2023/03/24 09:57:04;;;;;;;14.50;10.50;;;;;;;17.11;47.45;98960.39;107562;1254;61228;-39
2023/03/24 09:59:38;;;;;;;12.80;10.30;;;;;;;17.13;47.62;98963.64;107414;1254;75017;-39
2023/03/24 10:02:12;;;;;;;12.60;10.00;;;;;;;17.16;48.06;98960.85;107622;1254;69934;-39
2023/03/24 10:04:41;;;;;;;13.90;10.30;;;;;;;17.25;47.57;98957.98;107647;1255;73856;-39
2023/03/24 10:07:34;;;;;;;15.70;10.10;;;;;;;17.36;46.93;98959.40;107610;1257;61301;-39
2023/03/24 10:10:28;;;;;;;14.20;10.60;;;;;;;17.44;47.05;98950.58;107595;1254;61273;-39
2023/03/24 10:13:03;;;;;;;14.00;10.60;;;;;;;17.49;46.55;98952.92;107591;1254;75045;-40
2023/03/24 10:15:40;;;;;;;14.40;10.00;;;;;;;17.55;46.89;98953.30;107554;1260;69922;-40
2023/03/24 10:18:11;;;;;;;16.40;9.70;;;;;;;17.62;46.54;98947.34;107659;1254;73876;-40
2023/03/24 10:20:45;;;;;;;15.00;10.10;;;;;;;17.65;46.20;98949.55;107597;1254;61115;-40
2023/03/24 10:23:23;;;;;;;16.10;10.10;;;;;;;17.67;45.98;98946.24;107685;1254;61202;-40
2023/03/24 10:26:25;;;;;;;13.50;9.50;;;;;;;17.71;46.09;98945.95;107620;1258;75028;-39
2023/03/24 10:29:31;;;;;;;15.20;9.70;;;;;;;17.77;45.67;98947.16;107648;1254;69897;-39
2023/03/24 10:32:00;;;;;;;14.60;8.60;;;;;;;17.84;46.05;98943.55;107237;1254;73706;-40
2023/03/24 10:34:31;;;;;;;14.40;8.70;;;;;;;17.94;45.35;98941.88;107628;1257;61314;-40
2023/03/24 10:37:03;;;;;;;11.30;7.80;;;;;;;18.07;45.13;98931.91;107670;1254;60029;-40
2023/03/24 10:39:32;;;;;;;14.30;8.30;;;;;;;18.25;44.80;98926.86;107609;1254;73851;-40
2023/03/24 10:42:15;;;;;;;11.00;8.10;;;;;;;18.51;45.37;98923.16;107619;1254;69705;-40
2023/03/24 10:44:50;;;;;;;12.30;8.60;;;;;;;18.77;43.19;98924.14;107483;1254;73531;-40
2023/03/24 10:47:23;;;;;;;11.90;8.30;;;;;;;18.92;42.60;98916.20;107478;1255;61600;-39
2023/03/24 10:49:53;;;;;;;12.90;8.00;;;;;;;19.02;42.66;98920.45;107512;1257;60352;-39
2023/03/24 10:52:23;;;;;;;13.10;8.00;;;;;;;19.18;42.88;98914.52;107566;1254;75044;-40
2023/03/24 10:54:57;;;;;;;10.90;8.50;;;;;;;19.33;42.05;98920.61;107600;1255;69693;-40
2023/03/24 10:57:25;;;;;;;12.10;9.20;;;;;;;19.35;41.32;98914.75;107530;1253;71708;-40
2023/03/24 10:59:56;;;;;;;9.90;7.50;;;;;;;19.31;41.54;98912.58;107534;1259;60599;-40
2023/03/24 11:02:32;;;;;;;9.80;8.20;;;;;;;19.27;42.62;98912.48;107454;1254;61209;-40
2023/03/24 11:05:27;;;;;;;11.80;8.30;;;;;;;19.27;43.53;98905.59;107511;1260;73767;-40
2023/03/24 11:08:10;;;;;;;10.70;7.80;;;;;;;19.32;43.16;98906.96;107532;1254;69973;-40
2023/03/24 11:10:39;;;;;;;11.20;7.80;;;;;;;19.36;43.14;98910.80;107547;1254;74054;-40
2023/03/24 11:13:19;;;;;;;14.10;8.40;;;;;;;19.40;42.87;98901.50;107527;1258;61642;-39
2023/03/24 11:16:03;;;;;;;10.70;7.50;;;;;;;19.48;42.26;98901.41;107515;1256;61537;-40
2023/03/24 11:18:34;;;;;;;10.10;7.20;;;;;;;19.64;41.99;98896.87;107514;1255;75021;-40
2023/03/24 11:21:04;;;;;;;12.30;7.20;;;;;;;19.83;42.08;98894.82;107579;1256;69535;-40
2023/03/24 11:23:33;;;;;;;11.60;7.80;;;;;;;20.08;41.30;98891.47;107544;1259;73651;-40
2023/03/24 11:26:11;;;;;;;11.30;8.40;;;;;;;20.36;39.43;98890.31;107570;1259;60492;-38
2023/03/24 11:28:59;;;;;;;9.60;7.00;;;;;;;20.59;39.10;98879.98;107555;1260;61445;-40
2023/03/24 11:31:33;;;;;;;8.10;5.50;;;;;;;20.74;38.31;98881.98;107517;1259;73945;-39
2023/03/24 11:34:48;;;;;;;8.90;6.30;;;;;;;20.78;38.68;98874.62;107541;1259;68856;-39
2023/03/24 11:37:24;;;;;;;6.80;5.40;;;;;;;20.81;38.11;98865.71;107207;1254;73902;-39
2023/03/24 11:40:11;;;;;;;9.90;5.20;;;;;;;20.75;38.34;98865.20;107413;1259;60530;-39
2023/03/24 11:42:44;;;;;;;8.00;5.50;;;;;;;20.70;39.05;98865.17;107287;1260;60439;-39
2023/03/24 11:45:36;;;;;;;8.30;5.10;;;;;;;20.69;38.10;98866.45;107509;1258;73165;-39
2023/03/24 11:48:16;;;;;;;7.40;4.70;;;;;;;20.65;38.66;98859.44;107394;1255;70340;-39
2023/03/24 11:50:44;;;;;;;11.60;5.60;;;;;;;20.59;38.34;98871.41;107436;1258;73658;-39
2023/03/24 11:53:18;;;;;;;7.80;5.50;;;;;;;20.51;38.45;98865.84;107354;1259;61573;-39
2023/03/24 11:56:06;;;;;;;7.00;5.00;;;;;;;20.44;38.90;98866.44;107565;1254;61576;-39
2023/03/24 11:58:48;;;;;;;8.40;5.30;;;;;;;20.32;38.45;98860.13;107553;1254;74933;-39